Highland, West Virginia
Current Conditions -  °F | °C
As of 8:53 AM on Monday 22 Dec 2014 (Local Time) from KPKB Reporting Station
Broken Clouds Broken Clouds  
Wind Chill: 28°   Ceiling: 5500
Heat Index: 34°   Visibility: 9mi
Dew Point: 29°   Wind: 7mph
Humidity: 82%   Direction: 80°E
Pressure: 30.1"   Gusts: NA
Location:  39.2993°N, 81.0581°W
Report Text: KPKB 221353Z 08006KT 9SM BKN055 01/M02 A3010 RMK AO2 SLP199 T00111017
Loading
Personal Weather Stations






























Interactive Weather Map New forecast layout! Learn more

10-Day Weather Forecast

Advertisements
Track Severe Weather on mobile